createdAt,value
2023-06-10T00:01:35.353Z,15.90
2023-06-10T00:04:05.584Z,15.90
2023-06-10T00:06:37.804Z,16.00
2023-06-10T00:09:08.700Z,15.90
2023-06-10T00:11:37.206Z,15.90
2023-06-10T00:14:06.973Z,15.90
2023-06-10T00:16:40.381Z,16.00
2023-06-10T00:19:09.407Z,15.80
2023-06-10T00:21:41.712Z,15.90
2023-06-10T00:24:13.270Z,15.80
2023-06-10T00:26:44.131Z,15.60
2023-06-10T00:29:16.898Z,15.50
2023-06-10T00:31:48.033Z,15.50
2023-06-10T00:34:19.051Z,15.50
2023-06-10T00:36:50.617Z,15.40
2023-06-10T00:39:18.893Z,15.20
2023-06-10T00:41:50.633Z,15.00
2023-06-10T00:44:19.032Z,14.90
2023-06-10T00:46:47.853Z,15.00
2023-06-10T00:49:18.918Z,14.90
2023-06-10T00:51:49.288Z,14.80
2023-06-10T00:54:21.108Z,14.80
2023-06-10T00:56:56.351Z,14.80
2023-06-10T00:59:27.054Z,14.80
2023-06-10T01:04:46.099Z,15.00
2023-06-10T01:07:33.719Z,15.00
2023-06-10T01:10:07.811Z,15.00
2023-06-10T01:16:13.104Z,15.00
2023-06-10T01:18:45.686Z,15.00
2023-06-10T01:21:26.208Z,15.00
2023-06-10T01:23:57.960Z,15.10
2023-06-10T01:26:32.638Z,15.10
2023-06-10T01:29:08.499Z,15.00
2023-06-10T01:31:47.092Z,15.10
2023-06-10T01:34:19.813Z,15.00
2023-06-10T01:36:52.180Z,15.00
2023-06-10T01:39:23.352Z,14.80
2023-06-10T01:41:51.999Z,14.70
2023-06-10T01:44:24.102Z,14.70
2023-06-10T01:46:53.713Z,14.60
2023-06-10T01:49:25.291Z,14.60
2023-06-10T01:51:56.953Z,14.70
2023-06-10T01:54:35.665Z,14.60
2023-06-10T01:57:04.227Z,14.50
2023-06-10T01:59:32.366Z,14.40
2023-06-10T02:02:01.686Z,14.40
2023-06-10T02:04:29.998Z,14.30
2023-06-10T02:07:05.985Z,14.40
2023-06-10T02:09:36.561Z,14.40
2023-06-10T02:12:07.311Z,14.40
2023-06-10T02:14:42.200Z,14.40
2023-06-10T02:17:13.755Z,14.40
2023-06-10T02:19:44.228Z,14.30
2023-06-10T02:22:14.975Z,14.30
2023-06-10T02:25:18.989Z,14.20
2023-06-10T02:27:48.351Z,14.10
2023-06-10T02:30:16.839Z,14.00
2023-06-10T02:32:49.701Z,13.90
2023-06-10T02:35:21.596Z,13.90
2023-06-10T02:37:59.647Z,14.00
2023-06-10T02:40:29.269Z,13.90
2023-06-10T02:42:58.660Z,14.00
2023-06-10T02:45:26.985Z,13.90
2023-06-10T02:47:57.536Z,14.00
2023-06-10T02:50:39.993Z,13.80
2023-06-10T02:53:31.036Z,13.80
2023-06-10T02:56:00.285Z,13.80
2023-06-10T02:58:29.548Z,13.80
2023-06-10T03:01:00.062Z,13.90
2023-06-10T03:03:34.382Z,13.90
2023-06-10T03:06:06.829Z,13.90
2023-06-10T03:08:37.884Z,13.90
2023-06-10T03:11:06.096Z,13.90
2023-06-10T03:13:37.415Z,13.80
2023-06-10T03:16:07.095Z,13.80
2023-06-10T03:18:35.404Z,13.70
2023-06-10T03:21:07.608Z,13.60
2023-06-10T03:23:37.233Z,13.60
2023-06-10T03:26:07.247Z,13.50
2023-06-10T03:28:37.955Z,13.40
2023-06-10T03:31:06.262Z,13.30
2023-06-10T03:33:37.006Z,13.40
2023-06-10T03:36:05.707Z,13.30
2023-06-10T03:38:35.324Z,13.20
2023-06-10T03:41:06.026Z,13.20
2023-06-10T03:43:35.016Z,13.30
2023-06-10T03:46:04.847Z,13.30
2023-06-10T03:48:34.257Z,13.50
2023-06-10T03:51:05.222Z,13.50
2023-06-10T03:53:41.098Z,13.30
2023-06-10T03:56:10.732Z,13.40
2023-06-10T03:58:44.646Z,13.30
2023-06-10T04:01:19.081Z,13.10
2023-06-10T04:03:51.743Z,13.20
2023-06-10T04:06:26.638Z,13.10
2023-06-10T04:08:57.939Z,13.00
2023-06-10T04:11:28.819Z,13.10
2023-06-10T04:13:56.932Z,13.10
2023-06-10T04:16:27.627Z,13.10
2023-06-10T04:18:59.452Z,13.30
2023-06-10T04:21:32.003Z,13.30
2023-06-10T04:24:03.941Z,13.30
2023-06-10T04:26:40.002Z,13.30
2023-06-10T04:29:09.722Z,13.30
2023-06-10T04:31:41.339Z,13.30
2023-06-10T04:34:18.018Z,13.30
2023-06-10T04:36:50.157Z,13.40
2023-06-10T04:39:19.664Z,13.50
2023-06-10T04:41:50.709Z,13.60
2023-06-10T04:44:20.844Z,13.70
2023-06-10T04:46:53.365Z,13.80
2023-06-10T04:49:26.042Z,13.70
2023-06-10T04:52:05.266Z,13.60
2023-06-10T04:58:16.832Z,13.70
2023-06-10T05:00:48.222Z,13.60
2023-06-10T05:03:22.048Z,13.70
2023-06-10T05:05:50.927Z,13.70
2023-06-10T05:08:25.791Z,13.80
2023-06-10T05:10:54.101Z,13.80
2023-06-10T05:13:28.336Z,14.00
2023-06-10T05:16:03.459Z,14.10
2023-06-10T05:18:35.460Z,14.20
2023-06-10T05:21:06.052Z,14.40
2023-06-10T05:23:34.365Z,14.50
2023-06-10T05:26:52.117Z,14.60
2023-06-10T05:29:24.429Z,14.60
2023-06-10T05:32:00.441Z,14.80
2023-06-10T05:34:29.554Z,15.00
2023-06-10T05:37:01.694Z,15.10
2023-06-10T05:39:38.571Z,15.10
2023-06-10T05:42:11.699Z,15.30
2023-06-10T05:44:44.448Z,15.30
2023-06-10T05:47:15.053Z,15.40
2023-06-10T05:50:14.084Z,15.50
2023-06-10T05:53:04.564Z,15.70
2023-06-10T05:55:33.165Z,15.90
2023-06-10T05:58:03.359Z,16.20
2023-06-10T06:00:33.200Z,16.30
2023-06-10T06:03:02.564Z,16.40
2023-06-10T06:05:36.061Z,16.50
2023-06-10T06:08:05.129Z,16.60
2023-06-10T06:10:36.717Z,16.80
2023-06-10T06:13:06.144Z,16.90
2023-06-10T06:15:42.712Z,17.00
2023-06-10T06:18:27.262Z,17.00
2023-06-10T06:20:58.138Z,17.10
2023-06-10T06:23:40.781Z,17.40
2023-06-10T06:26:09.971Z,17.60
2023-06-10T06:28:41.770Z,17.50
2023-06-10T06:31:13.917Z,17.70
2023-06-10T06:33:45.769Z,17.80
2023-06-10T06:36:15.646Z,18.10
2023-06-10T06:38:50.207Z,18.10
2023-06-10T06:41:30.350Z,18.50
2023-06-10T06:43:59.858Z,18.70
2023-06-10T06:46:32.446Z,20.70
2023-06-10T06:49:00.690Z,22.00
2023-06-10T06:51:29.966Z,23.90
2023-06-10T06:54:00.978Z,22.70
2023-06-10T06:56:29.841Z,24.20
2023-06-10T06:59:17.088Z,23.80
2023-06-10T07:01:48.268Z,25.20
2023-06-10T07:04:17.790Z,24.10
2023-06-10T07:06:46.371Z,24.70
2023-06-10T07:09:14.664Z,25.00
2023-06-10T07:11:47.189Z,25.40
2023-06-10T07:14:18.550Z,25.80
2023-06-10T07:16:49.861Z,27.40
2023-06-10T07:19:18.454Z,27.50
2023-06-10T07:21:50.965Z,27.30
2023-06-10T07:24:22.693Z,27.40
2023-06-10T07:27:01.074Z,28.30
2023-06-10T07:29:34.367Z,28.30
2023-06-10T07:35:49.753Z,27.70
2023-06-10T07:39:10.470Z,27.20
2023-06-10T07:49:07.278Z,26.30
2023-06-10T07:55:05.437Z,28.70
2023-06-10T07:57:44.760Z,30.00
2023-06-10T08:00:42.377Z,29.70
2023-06-10T08:03:11.962Z,29.00
2023-06-10T08:06:18.505Z,28.80
2023-06-10T08:08:53.068Z,29.40
2023-06-10T08:11:48.763Z,30.80
2023-06-10T08:14:17.556Z,30.30
2023-06-10T08:17:01.962Z,29.70
2023-06-10T08:19:35.180Z,27.90
2023-06-10T08:22:03.597Z,28.70
2023-06-10T08:24:38.800Z,30.10
2023-06-10T08:27:08.320Z,29.20
2023-06-10T08:29:51.186Z,29.40
2023-06-10T08:33:19.111Z,30.70
2023-06-10T08:35:47.675Z,30.30
2023-06-10T08:42:27.265Z,29.10
2023-06-10T08:45:20.829Z,28.70
2023-06-10T08:48:08.540Z,30.50
2023-06-10T08:50:40.638Z,29.30
2023-06-10T08:53:15.365Z,30.70
2023-06-10T08:55:47.141Z,29.20
2023-06-10T08:58:25.139Z,30.60
2023-06-10T09:00:54.346Z,27.90
2023-06-10T09:03:38.436Z,29.80
2023-06-10T09:06:21.678Z,29.40
2023-06-10T09:09:10.989Z,29.80
2023-06-10T09:12:01.706Z,31.10
2023-06-10T09:14:45.276Z,30.00
2023-06-10T09:17:13.774Z,31.00
2023-06-10T09:19:56.789Z,30.10
2023-06-10T09:22:30.415Z,28.70
2023-06-10T09:25:12.225Z,28.80
2023-06-10T09:27:57.211Z,29.60
2023-06-10T09:30:30.866Z,30.20
2023-06-10T09:33:16.089Z,28.80
2023-06-10T09:36:17.842Z,29.40
2023-06-10T09:38:47.605Z,30.20
2023-06-10T09:48:55.721Z,30.10
2023-06-10T09:51:25.141Z,30.00
2023-06-10T09:53:54.835Z,29.00
2023-06-10T09:56:35.677Z,27.40
2023-06-10T09:59:07.662Z,28.00
2023-06-10T10:01:37.410Z,27.30
2023-06-10T10:04:08.370Z,26.50
2023-06-10T10:06:38.647Z,27.10
2023-06-10T10:09:08.733Z,27.20
2023-06-10T10:11:43.759Z,27.40
2023-06-10T10:14:18.780Z,27.20
2023-06-10T10:16:49.391Z,26.40
2023-06-10T10:19:28.737Z,26.80
2023-06-10T10:22:04.729Z,27.10
2023-06-10T10:24:39.786Z,27.30
2023-06-10T10:27:21.191Z,26.40
2023-06-10T10:29:54.317Z,27.10
2023-06-10T10:32:30.119Z,26.20
2023-06-10T10:35:11.443Z,27.00
2023-06-10T10:37:41.262Z,26.70
2023-06-10T10:44:13.489Z,26.70
2023-06-10T10:46:46.462Z,27.40
2023-06-10T10:49:16.461Z,27.70
2023-06-10T10:52:33.234Z,26.80
2023-06-10T10:55:14.967Z,26.70
2023-06-10T10:57:43.201Z,27.40
2023-06-10T11:00:12.761Z,27.70
2023-06-10T11:02:45.457Z,27.50
2023-06-10T11:05:16.233Z,27.20
2023-06-10T11:08:42.700Z,27.00
2023-06-10T11:11:23.643Z,26.80
2023-06-10T11:14:07.693Z,26.40
2023-06-10T11:16:42.826Z,26.70
2023-06-10T11:19:11.574Z,27.40
2023-06-10T11:22:03.951Z,27.00
2023-06-10T11:24:32.509Z,27.50
2023-06-10T11:27:24.229Z,27.20
2023-06-10T11:30:19.352Z,27.00
2023-06-10T11:32:52.879Z,27.40
2023-06-10T11:35:23.625Z,26.70
2023-06-10T11:37:52.140Z,27.30
2023-06-10T11:40:20.494Z,27.00
2023-06-10T11:50:13.793Z,27.20
2023-06-10T11:52:42.620Z,27.30
2023-06-10T11:55:11.667Z,27.80
2023-06-10T11:57:39.967Z,27.70
2023-06-10T12:00:10.816Z,27.50
2023-06-10T12:02:39.062Z,27.60
2023-06-10T12:05:18.592Z,27.80
2023-06-10T12:08:40.480Z,26.80
2023-06-10T12:11:09.959Z,27.40
2023-06-10T12:13:40.027Z,27.10
2023-06-10T12:16:13.904Z,27.70
2023-06-10T12:18:48.860Z,27.80
2023-06-10T12:21:22.517Z,27.40
2023-06-10T12:24:48.427Z,27.60
2023-06-10T12:27:17.873Z,27.00
2023-06-10T12:29:56.510Z,27.00
2023-06-10T12:32:42.728Z,27.80
2023-06-10T12:35:17.860Z,27.20
2023-06-10T12:38:03.312Z,27.70
2023-06-10T12:40:35.954Z,27.90
2023-06-10T12:43:06.531Z,27.70
2023-06-10T12:45:38.541Z,26.90
2023-06-10T12:48:30.184Z,26.70
2023-06-10T12:51:02.966Z,27.40
2023-06-10T12:53:48.190Z,27.70
2023-06-10T12:56:16.551Z,27.50
2023-06-10T13:04:55.189Z,27.70
2023-06-10T13:07:25.049Z,28.10
2023-06-10T13:09:55.621Z,28.00
2023-06-10T13:12:48.313Z,27.30
2023-06-10T13:15:19.281Z,27.60
2023-06-10T13:17:52.953Z,27.20
2023-06-10T13:20:25.864Z,27.80
2023-06-10T13:22:55.922Z,27.00
2023-06-10T13:25:27.570Z,27.00
2023-06-10T13:27:58.733Z,27.20
2023-06-10T13:30:58.762Z,27.90
2023-06-10T13:33:35.446Z,27.80
2023-06-10T13:36:08.022Z,26.70
2023-06-10T13:38:37.101Z,27.10
2023-06-10T13:41:07.300Z,27.30
2023-06-10T13:43:38.891Z,28.10
2023-06-10T13:46:11.752Z,27.80
2023-06-10T13:48:41.002Z,27.70
2023-06-10T13:51:13.796Z,27.80
2023-06-10T13:53:47.202Z,28.20
2023-06-10T13:56:17.624Z,28.00
2023-06-10T13:59:22.638Z,27.80
2023-06-10T14:01:54.377Z,27.70
2023-06-10T14:04:41.749Z,27.40
2023-06-10T14:07:36.273Z,27.30
2023-06-10T14:10:10.824Z,27.30
2023-06-10T14:12:49.116Z,27.80
2023-06-10T14:15:22.583Z,28.30
2023-06-10T14:17:53.171Z,28.30
2023-06-10T14:23:52.985Z,28.60
2023-06-10T14:26:23.998Z,28.40
2023-06-10T14:28:58.811Z,27.80
2023-06-10T14:31:40.505Z,27.90
2023-06-10T14:34:11.092Z,27.90
2023-06-10T14:36:41.145Z,27.60
2023-06-10T14:42:54.985Z,28.30
2023-06-10T14:45:24.516Z,28.40
2023-06-10T14:48:05.065Z,28.20
2023-06-10T14:50:34.534Z,28.40
2023-06-10T14:53:22.969Z,28.50
2023-06-10T14:55:53.085Z,28.30
2023-06-10T14:58:34.032Z,28.10
2023-06-10T15:01:03.947Z,26.90
2023-06-10T15:03:33.246Z,27.20
2023-06-10T15:06:03.035Z,27.70
2023-06-10T15:08:31.508Z,28.10
2023-06-10T15:11:03.025Z,28.40
2023-06-10T15:13:34.381Z,28.50
2023-06-10T15:16:07.625Z,28.10
2023-06-10T15:18:36.935Z,27.40
2023-06-10T15:21:05.527Z,27.10
2023-06-10T15:23:38.468Z,27.50
2023-06-10T15:26:08.708Z,27.10
2023-06-10T15:29:16.931Z,27.30
2023-06-10T15:31:52.353Z,27.20
2023-06-10T15:34:35.897Z,27.80
2023-06-10T15:37:04.352Z,27.50
2023-06-10T15:39:34.435Z,26.00
2023-06-10T15:42:07.046Z,24.70
2023-06-10T15:44:38.816Z,24.60
2023-06-10T15:47:48.971Z,24.10
2023-06-10T15:50:46.993Z,23.80
2023-06-10T15:53:45.172Z,20.50
2023-06-10T15:56:18.541Z,20.60
2023-06-10T16:02:43.406Z,20.50
2023-06-10T16:05:14.525Z,20.50
2023-06-10T16:07:46.416Z,20.50
2023-06-10T16:10:15.764Z,20.20
2023-06-10T16:12:47.466Z,20.40
2023-06-10T16:15:17.298Z,20.00
2023-06-10T16:17:50.186Z,20.20
2023-06-10T16:20:20.248Z,19.80
2023-06-10T16:22:49.524Z,19.20
2023-06-10T16:25:19.025Z,19.80
2023-06-10T16:27:54.519Z,21.10
2023-06-10T16:30:23.192Z,21.90
2023-06-10T16:32:57.837Z,22.20
2023-06-10T16:35:29.405Z,22.40
2023-06-10T16:38:00.795Z,22.60
2023-06-10T16:40:31.595Z,22.60
2023-06-10T16:43:08.326Z,22.50
2023-06-10T16:45:41.335Z,22.60
2023-06-10T16:51:40.809Z,22.70
2023-06-10T16:54:11.848Z,22.80
2023-06-10T17:00:00.581Z,22.10
2023-06-10T17:02:39.093Z,22.00
2023-06-10T17:05:13.372Z,22.00
2023-06-10T17:07:44.854Z,22.10
2023-06-10T17:10:17.327Z,22.00
2023-06-10T17:12:45.772Z,22.10
2023-06-10T17:15:18.494Z,22.00
2023-06-10T17:18:00.905Z,22.00
2023-06-10T17:20:31.827Z,22.00
2023-06-10T17:23:04.106Z,21.90
2023-06-10T17:25:36.593Z,22.00
2023-06-10T17:28:13.495Z,21.80
2023-06-10T17:30:43.110Z,21.80
2023-06-10T17:33:11.557Z,21.70
2023-06-10T17:35:43.536Z,21.80
2023-06-10T17:38:20.516Z,21.90
2023-06-10T17:40:50.215Z,22.00
2023-06-10T17:43:19.869Z,22.00
2023-06-10T17:48:56.671Z,22.00
2023-06-10T17:51:53.190Z,22.00
2023-06-10T17:54:27.323Z,22.00
2023-06-10T17:56:57.421Z,22.00
2023-06-10T17:59:26.857Z,21.90
2023-06-10T18:01:56.425Z,22.00
2023-06-10T18:04:24.922Z,21.70
2023-06-10T18:07:07.455Z,21.70
2023-06-10T18:10:10.796Z,21.60
2023-06-10T18:12:49.685Z,21.60
2023-06-10T18:15:22.739Z,21.50
2023-06-10T18:17:57.781Z,21.50
2023-06-10T18:20:26.532Z,21.40
2023-06-10T18:22:55.141Z,21.50
2023-06-10T18:25:25.354Z,21.50
2023-06-10T18:27:54.150Z,21.40
2023-06-10T18:30:29.589Z,21.40
2023-06-10T18:32:59.672Z,21.30
2023-06-10T18:35:28.386Z,21.30
2023-06-10T18:40:51.572Z,21.20
2023-06-10T18:43:19.931Z,21.30
2023-06-10T18:46:19.206Z,21.30
2023-06-10T18:48:50.329Z,21.30
2023-06-10T18:51:18.830Z,21.30
2023-06-10T18:53:49.763Z,21.30
2023-06-10T18:56:20.678Z,21.30
2023-06-10T18:58:50.935Z,21.30
2023-06-10T19:01:26.886Z,21.30
2023-06-10T19:03:58.969Z,21.30
2023-06-10T19:06:29.748Z,21.20
2023-06-10T19:12:17.866Z,20.90
2023-06-10T19:14:48.324Z,20.50
2023-06-10T19:17:18.691Z,20.30
2023-06-10T19:19:48.978Z,20.30
2023-06-10T19:22:17.178Z,20.30
2023-06-10T19:24:59.402Z,20.20
2023-06-10T19:27:30.061Z,20.10
2023-06-10T19:30:10.989Z,20.00
2023-06-10T19:32:55.162Z,20.00
2023-06-10T19:35:37.708Z,20.10
2023-06-10T19:38:24.327Z,20.10
2023-06-10T19:41:07.504Z,20.20
2023-06-10T19:43:40.622Z,20.20
2023-06-10T19:49:11.678Z,20.00
2023-06-10T19:51:43.858Z,20.00
2023-06-10T19:54:13.470Z,20.00
2023-06-10T19:56:43.433Z,20.00
2023-06-10T19:59:18.041Z,20.00
2023-06-10T20:01:48.629Z,20.00
2023-06-10T20:04:20.044Z,20.10
2023-06-10T20:06:52.933Z,20.20
2023-06-10T20:09:21.130Z,20.20
2023-06-10T20:11:51.249Z,20.20
2023-06-10T20:14:26.048Z,20.10
2023-06-10T20:17:16.944Z,20.00
2023-06-10T20:19:49.754Z,20.00
2023-06-10T20:24:53.745Z,19.80
2023-06-10T20:29:52.119Z,19.80
2023-06-10T20:32:25.396Z,19.70
2023-06-10T20:34:53.673Z,19.60
2023-06-10T20:37:25.924Z,19.60
2023-06-10T20:39:54.186Z,19.50
2023-06-10T20:42:25.535Z,19.40
2023-06-10T20:44:57.000Z,19.30
2023-06-10T20:47:32.540Z,19.30
2023-06-10T20:50:00.812Z,19.30
2023-06-10T20:52:37.689Z,19.30
2023-06-10T20:55:08.559Z,19.50
2023-06-10T20:57:42.156Z,19.60
2023-06-10T21:00:19.285Z,19.80
2023-06-10T21:02:49.850Z,19.90
2023-06-10T21:05:18.356Z,19.90
2023-06-10T21:07:48.947Z,19.90
2023-06-10T21:10:18.520Z,19.80
2023-06-10T21:12:47.403Z,19.70
2023-06-10T21:15:20.056Z,19.60
2023-06-10T21:17:49.831Z,19.70
2023-06-10T21:20:21.346Z,19.60
2023-06-10T21:22:49.860Z,19.70
2023-06-10T21:25:31.929Z,19.80
2023-06-10T21:28:20.107Z,19.80
2023-06-10T21:31:02.494Z,19.80
2023-06-10T21:33:36.048Z,19.60
2023-06-10T21:36:08.557Z,19.60
2023-06-10T21:39:05.239Z,19.40
2023-06-10T21:41:37.767Z,19.30
2023-06-10T21:44:08.432Z,19.00
2023-06-10T21:46:44.831Z,18.80
2023-06-10T21:49:17.804Z,18.80
2023-06-10T21:51:46.374Z,18.80
2023-06-10T21:54:26.268Z,18.80
2023-06-10T21:56:55.830Z,18.80
2023-06-10T21:59:46.888Z,18.80
2023-06-10T22:02:20.312Z,18.60
2023-06-10T22:05:01.491Z,18.40
2023-06-10T22:07:40.699Z,18.40
2023-06-10T22:10:09.705Z,18.40
2023-06-10T22:12:40.688Z,18.50
2023-06-10T22:15:17.040Z,18.50
2023-06-10T22:17:48.890Z,18.70
2023-06-10T22:20:26.123Z,18.90
2023-06-10T22:22:56.691Z,19.00
2023-06-10T22:25:28.899Z,19.00
2023-06-10T22:28:20.294Z,19.10
2023-06-10T22:34:22.519Z,19.10
2023-06-10T22:37:01.060Z,19.00
2023-06-10T22:39:42.835Z,18.60
2023-06-10T22:42:20.090Z,18.60
2023-06-10T22:44:59.763Z,18.40
2023-06-10T22:47:50.724Z,18.40
2023-06-10T22:50:22.953Z,18.40
2023-06-10T22:53:05.688Z,18.40
2023-06-10T22:55:38.095Z,18.50
2023-06-10T22:58:12.650Z,18.50
2023-06-10T23:00:54.700Z,18.50
2023-06-10T23:03:35.301Z,18.50
2023-06-10T23:06:13.500Z,18.60
2023-06-10T23:08:49.963Z,18.50
2023-06-10T23:11:33.507Z,18.30
2023-06-10T23:16:58.682Z,18.10
2023-06-10T23:19:31.487Z,18.00
2023-06-10T23:22:14.295Z,18.10
2023-06-10T23:24:53.099Z,18.00
2023-06-10T23:27:33.334Z,18.10
2023-06-10T23:30:18.095Z,18.10
2023-06-10T23:36:11.889Z,17.70
2023-06-10T23:38:53.825Z,17.70
2023-06-10T23:41:48.488Z,17.60
2023-06-10T23:44:22.520Z,17.50
2023-06-10T23:46:52.522Z,17.50
2023-06-10T23:50:05.371Z,17.50
2023-06-10T23:52:37.024Z,17.50
2023-06-10T23:55:48.860Z,17.50
2023-06-10T23:58:22.878Z,17.50
